Time;durP1;ratioP1;P1;durP2;ratioP2;P2;SDS_P1;SDS_P2;PMS_P1;PMS_P2;Temp;Humidity;BMP_temperature;BMP_pressure;BME280_temperature;BME280_humidity;BME280_pressure;Samples;Min_cycle;Max_cycle;Signal;HPM_P1;HPM_P2
2023/05/01 00:01:49;;;;;;;10.77;7.77;;;;;;;14.24;54.69;97400.50;5029897;28;20187;-72
2023/05/01 00:04:15;;;;;;;10.00;8.17;;;;;;;14.20;54.82;97398.38;5029272;28;20426;-71
2023/05/01 00:06:41;;;;;;;13.13;8.20;;;;;;;14.18;54.99;97395.91;5029043;28;20243;-70
2023/05/01 00:09:06;;;;;;;10.63;8.17;;;;;;;14.17;54.70;97389.00;5029051;28;20488;-71
2023/05/01 00:11:33;;;;;;;9.33;8.20;;;;;;;14.18;54.92;97403.81;5034485;28;20199;-70
2023/05/01 00:13:59;;;;;;;10.27;8.27;;;;;;;14.13;55.26;97392.97;5029434;28;20213;-71
2023/05/01 00:16:24;;;;;;;9.40;8.27;;;;;;;14.15;55.18;97390.97;5030154;28;20998;-73
2023/05/01 00:18:50;;;;;;;10.37;7.87;;;;;;;14.15;54.94;97390.16;5032912;28;20249;-71
2023/05/01 00:21:15;;;;;;;9.10;8.20;;;;;;;14.13;55.14;97382.41;5031041;28;20716;-71
2023/05/01 00:23:41;;;;;;;9.40;7.27;;;;;;;14.08;55.12;97382.94;5032184;28;20568;-70
2023/05/01 00:26:06;;;;;;;8.97;7.63;;;;;;;14.12;55.09;97386.03;5030804;28;20245;-70
2023/05/01 00:28:32;;;;;;;10.27;8.50;;;;;;;14.12;55.09;97378.13;5033324;28;20219;-70
2023/05/01 00:30:57;;;;;;;10.80;8.03;;;;;;;14.07;54.97;97373.38;5033591;28;20271;-70
2023/05/01 00:33:23;;;;;;;10.40;7.93;;;;;;;14.01;55.36;97379.34;5036971;28;20207;-71
2023/05/01 00:35:48;;;;;;;11.50;9.13;;;;;;;14.04;55.26;97370.28;5028977;28;20298;-71
2023/05/01 00:38:13;;;;;;;9.43;8.13;;;;;;;13.96;55.39;97366.69;5034109;28;20289;-71
2023/05/01 00:40:43;;;;;;;10.97;8.23;;;;;;;13.89;55.98;97364.91;5029022;28;20252;-70
2023/05/01 00:43:10;;;;;;;10.63;8.37;;;;;;;13.90;55.84;97364.72;5028310;28;20196;-70
2023/05/01 00:45:35;;;;;;;9.03;7.40;;;;;;;13.91;55.76;97358.44;5032035;28;20434;-69
2023/05/01 00:48:01;;;;;;;11.07;7.70;;;;;;;13.88;55.88;97361.41;5029660;28;20446;-70
2023/05/01 00:50:27;;;;;;;11.40;7.40;;;;;;;13.84;55.97;97357.50;5035351;28;20223;-71
2023/05/01 00:52:52;;;;;;;9.70;8.70;;;;;;;13.84;56.08;97352.22;5028861;28;20433;-72
2023/05/01 00:55:18;;;;;;;10.83;7.77;;;;;;;13.80;56.16;97361.47;5040101;28;22332;-70
2023/05/01 00:57:43;;;;;;;8.73;7.67;;;;;;;13.74;56.56;97351.56;5034238;28;20288;-72
2023/05/01 01:00:11;;;;;;;9.83;8.10;;;;;;;13.80;56.41;97346.47;5035912;28;20188;-71
2023/05/01 01:02:36;;;;;;;10.13;7.27;;;;;;;13.79;56.02;97359.81;5034021;28;20262;-70
2023/05/01 01:05:04;;;;;;;9.20;7.50;;;;;;;13.78;56.19;97345.84;5029229;28;20457;-71
2023/05/01 01:07:54;;;;;;;8.90;8.00;;;;;;;13.70;56.49;97342.38;5033444;28;20212;-72
2023/05/01 01:10:40;;;;;;;9.33;8.10;;;;;;;13.75;56.53;97340.06;5026605;28;20520;-70
2023/05/01 01:13:31;;;;;;;9.10;8.10;;;;;;;13.78;56.35;97335.28;5033878;28;20962;-71
2023/05/01 01:16:22;;;;;;;9.83;8.33;;;;;;;13.77;56.41;97338.91;5044028;28;20539;-70
2023/05/01 01:18:52;;;;;;;8.27;7.47;;;;;;;13.77;56.28;97330.19;5027950;28;20426;-69
2023/05/01 01:21:27;;;;;;;8.97;8.00;;;;;;;13.76;56.07;97328.53;5026385;28;20439;-70
2023/05/01 01:24:20;;;;;;;9.27;8.37;;;;;;;13.76;56.46;97318.00;5032469;28;20453;-70
2023/05/01 01:27:08;;;;;;;10.63;8.23;;;;;;;13.74;56.25;97327.88;5028691;28;20974;-72
2023/05/01 01:29:56;;;;;;;12.30;7.87;;;;;;;13.66;56.56;97321.66;5032381;28;20923;-70
2023/05/01 01:32:25;;;;;;;8.57;7.67;;;;;;;13.63;56.77;97324.63;5051131;28;20975;-68
2023/05/01 01:34:53;;;;;;;12.53;7.90;;;;;;;13.63;56.65;97321.19;5027546;28;20834;-72
2023/05/01 01:37:22;;;;;;;10.43;8.50;;;;;;;13.64;56.65;97322.81;5026226;28;20454;-70
2023/05/01 01:39:54;;;;;;;10.40;7.70;;;;;;;13.68;56.58;97324.09;5026303;28;20447;-72
2023/05/01 01:42:26;;;;;;;12.67;8.07;;;;;;;13.64;56.63;97325.44;5026131;28;20448;-71
2023/05/01 01:44:54;;;;;;;8.03;7.23;;;;;;;13.65;56.96;97325.28;5029449;28;20449;-70
2023/05/01 01:47:21;;;;;;;11.80;8.73;;;;;;;13.61;57.04;97321.31;5026840;28;20497;-72
2023/05/01 01:49:51;;;;;;;8.83;7.93;;;;;;;13.60;57.11;97324.97;5026285;28;20912;-71
2023/05/01 01:52:17;;;;;;;9.13;8.23;;;;;;;13.67;57.30;97319.84;5028250;28;20440;-71
2023/05/01 01:55:05;;;;;;;9.23;8.33;;;;;;;13.65;56.97;97316.56;5037722;28;20496;-72
2023/05/01 01:57:31;;;;;;;9.03;7.90;;;;;;;13.65;57.26;97316.56;5018904;28;20488;-70
2023/05/01 01:59:57;;;;;;;8.63;7.73;;;;;;;13.62;57.05;97307.16;5027386;28;20485;-71
2023/05/01 02:02:23;;;;;;;10.43;8.43;;;;;;;13.63;57.46;97305.38;5027203;28;20438;-72
2023/05/01 02:04:48;;;;;;;10.40;8.40;;;;;;;13.66;57.44;97303.22;5026317;28;20609;-73
2023/05/01 02:07:15;;;;;;;9.50;8.40;;;;;;;13.61;57.24;97300.25;5030420;28;20449;-70
2023/05/01 02:09:41;;;;;;;9.43;8.17;;;;;;;13.59;57.19;97290.91;5025919;28;20195;-71
2023/05/01 02:12:07;;;;;;;8.83;7.93;;;;;;;13.60;57.45;97292.53;5025632;28;20434;-70
2023/05/01 02:14:34;;;;;;;8.70;7.80;;;;;;;13.63;57.36;97293.00;5026934;28;20488;-71
2023/05/01 02:17:00;;;;;;;9.27;8.13;;;;;;;13.61;57.13;97284.47;5008947;28;20457;-71
2023/05/01 02:19:26;;;;;;;9.93;8.40;;;;;;;13.61;57.41;97279.19;5027249;28;20436;-71
2023/05/01 02:21:54;;;;;;;12.57;8.03;;;;;;;13.55;57.32;97286.94;5030360;28;20525;-70
2023/05/01 02:24:21;;;;;;;9.70;8.33;;;;;;;13.48;57.65;97284.19;5030312;28;20434;-70
2023/05/01 02:26:54;;;;;;;9.00;8.10;;;;;;;13.49;57.85;97280.53;5030168;28;20465;-70
2023/05/01 02:29:19;;;;;;;9.87;8.20;;;;;;;13.54;57.70;97283.50;5028975;28;20518;-71
2023/05/01 02:31:45;;;;;;;10.70;7.90;;;;;;;13.55;57.74;97279.88;5042622;28;20535;-71
2023/05/01 02:34:11;;;;;;;9.80;8.60;;;;;;;13.56;57.94;97280.69;5031361;28;20192;-69
2023/05/01 02:36:36;;;;;;;8.73;7.83;;;;;;;13.58;57.82;97281.34;5031824;28;20273;-70
2023/05/01 02:39:02;;;;;;;11.50;8.77;;;;;;;13.54;57.58;97275.59;5030834;28;20524;-70
2023/05/01 02:41:28;;;;;;;9.80;7.70;;;;;;;13.54;57.81;97272.97;5048282;28;20187;-70
2023/05/01 02:43:59;;;;;;;8.90;7.73;;;;;;;13.55;57.58;97269.34;5025085;28;20210;-71
2023/05/01 02:46:26;;;;;;;14.63;8.67;;;;;;;13.58;57.77;97269.03;5032267;28;20491;-70
2023/05/01 02:48:53;;;;;;;8.23;7.53;;;;;;;13.53;57.60;97266.06;5029153;28;20419;-69
2023/05/01 02:51:18;;;;;;;8.43;7.47;;;;;;;13.50;57.74;97264.59;5029006;28;20499;-68
2023/05/01 02:53:45;;;;;;;10.13;8.40;;;;;;;13.52;57.88;97257.34;5027410;28;20865;-70
2023/05/01 02:56:10;;;;;;;11.20;7.50;;;;;;;13.56;58.02;97260.47;5027857;28;20470;-68
2023/05/01 02:58:37;;;;;;;8.53;7.67;;;;;;;13.58;57.73;97262.91;5035073;28;20507;-70
2023/05/01 03:01:02;;;;;;;8.47;7.63;;;;;;;13.61;57.88;97257.31;5037006;28;20191;-68
2023/05/01 03:03:28;;;;;;;12.17;8.37;;;;;;;13.59;57.76;97259.28;5039403;28;20421;-71
2023/05/01 03:05:53;;;;;;;9.10;7.97;;;;;;;13.56;57.99;97260.47;5019526;28;20202;-71
2023/05/01 03:08:19;;;;;;;9.03;7.80;;;;;;;13.56;57.89;97260.47;5028836;28;20350;-69
2023/05/01 03:10:44;;;;;;;12.20;7.97;;;;;;;13.55;58.00;97252.72;5037834;28;20218;-71
2023/05/01 03:13:10;;;;;;;8.90;8.00;;;;;;;13.54;58.09;97262.44;5029485;28;20566;-70
2023/05/01 03:15:36;;;;;;;17.00;8.10;;;;;;;13.54;58.31;97259.81;5033489;28;20215;-71
2023/05/01 03:18:02;;;;;;;8.70;7.80;;;;;;;13.57;58.23;97251.59;5035048;28;20584;-72
2023/05/01 03:20:28;;;;;;;9.03;8.13;;;;;;;13.60;58.28;97255.69;5027569;28;20549;-70
2023/05/01 03:22:53;;;;;;;8.20;7.40;;;;;;;13.60;58.19;97248.63;5031909;28;20949;-70
2023/05/01 03:25:19;;;;;;;8.67;7.77;;;;;;;13.64;58.19;97257.00;5041647;28;20211;-70
2023/05/01 03:27:44;;;;;;;8.30;7.40;;;;;;;13.60;58.36;97251.25;5035681;28;20288;-72
2023/05/01 03:30:10;;;;;;;10.07;8.00;;;;;;;13.61;58.39;97252.84;5033795;28;20191;-69
2023/05/01 03:32:36;;;;;;;9.30;7.13;;;;;;;13.56;58.49;97252.56;5037383;28;20848;-70
2023/05/01 03:35:01;;;;;;;8.93;8.03;;;;;;;13.54;58.92;97251.91;5029120;28;20306;-71
2023/05/01 03:37:27;;;;;;;11.17;7.20;;;;;;;13.53;59.03;97242.38;5027944;28;20220;-71
2023/05/01 03:39:52;;;;;;;8.57;7.67;;;;;;;13.34;59.16;97238.28;5030737;28;20191;-71
2023/05/01 03:42:18;;;;;;;8.37;7.57;;;;;;;13.41;59.17;97241.09;5029729;28;20188;-70
2023/05/01 03:44:44;;;;;;;9.93;7.47;;;;;;;13.45;58.69;97239.78;5037421;28;20191;-71
2023/05/01 03:47:09;;;;;;;11.17;7.70;;;;;;;13.48;58.73;97237.63;5028554;28;20212;-72
2023/05/01 03:49:35;;;;;;;11.13;8.50;;;;;;;13.49;58.56;97238.41;5034462;28;20188;-71
2023/05/01 03:52:00;;;;;;;8.73;7.93;;;;;;;13.52;58.74;97227.56;5029063;28;20183;-71
2023/05/01 03:54:26;;;;;;;10.97;7.67;;;;;;;13.55;58.89;97231.66;5030913;28;20195;-71
2023/05/01 03:56:51;;;;;;;8.63;7.50;;;;;;;13.53;58.59;97231.84;5031625;28;20246;-72
2023/05/01 03:59:17;;;;;;;8.03;7.13;;;;;;;13.54;58.99;97225.59;5028193;28;20202;-69
2023/05/01 04:01:43;;;;;;;8.50;7.70;;;;;;;13.58;58.87;97224.25;5037284;28;20214;-70
2023/05/01 04:04:08;;;;;;;15.43;7.43;;;;;;;13.57;58.84;97225.25;5027318;28;20194;-71
2023/05/01 04:06:35;;;;;;;10.07;7.70;;;;;;;13.55;59.02;97232.50;5032873;28;20773;-70
2023/05/01 04:09:00;;;;;;;8.67;7.07;;;;;;;13.56;59.30;97223.59;5030381;28;20219;-73
2023/05/01 04:11:26;;;;;;;8.30;7.60;;;;;;;13.54;59.31;97222.94;5035604;28;20497;-70
2023/05/01 04:13:51;;;;;;;8.63;7.37;;;;;;;13.56;59.49;97226.25;5037137;28;20198;-71
2023/05/01 04:16:17;;;;;;;8.37;7.57;;;;;;;13.60;59.19;97230.19;5027500;28;20314;-70
2023/05/01 04:18:42;;;;;;;9.23;7.80;;;;;;;13.55;59.03;97223.75;5028389;28;20649;-71
2023/05/01 04:21:08;;;;;;;12.50;7.97;;;;;;;13.60;59.12;97229.34;5027490;28;20187;-71
2023/05/01 04:23:33;;;;;;;7.97;6.77;;;;;;;13.61;59.18;97231.78;5030199;28;20192;-71
2023/05/01 04:25:58;;;;;;;9.20;7.40;;;;;;;13.62;59.45;97228.16;5029813;28;20241;-71
2023/05/01 04:28:25;;;;;;;8.03;7.23;;;;;;;13.63;59.46;97224.56;5027767;28;20215;-72
2023/05/01 04:30:50;;;;;;;7.90;7.07;;;;;;;13.67;59.13;97231.13;5031660;28;20196;-72
2023/05/01 04:33:16;;;;;;;9.63;7.87;;;;;;;13.69;59.12;97223.03;5027389;28;20551;-72
2023/05/01 04:35:41;;;;;;;14.07;7.90;;;;;;;13.69;59.36;97227.50;5031090;28;20294;-71
2023/05/01 04:38:07;;;;;;;9.10;8.20;;;;;;;13.70;59.12;97232.59;5029113;28;20289;-71
2023/05/01 04:40:33;;;;;;;9.53;7.83;;;;;;;13.70;59.48;97232.59;5027573;28;20242;-71
2023/05/01 04:42:59;;;;;;;11.17;7.87;;;;;;;13.71;59.25;97234.22;5027788;28;20187;-72
2023/05/01 04:45:25;;;;;;;14.13;8.50;;;;;;;13.72;59.51;97230.59;5031839;28;20191;-72
2023/05/01 04:47:50;;;;;;;10.90;8.00;;;;;;;13.72;59.44;97232.44;5036124;28;20516;-71
2023/05/01 04:50:16;;;;;;;12.00;8.70;;;;;;;13.74;59.62;97231.25;5030672;28;20183;-70
2023/05/01 04:52:41;;;;;;;11.70;8.20;;;;;;;13.78;59.52;97231.72;5032177;28;20286;-70
2023/05/01 04:55:08;;;;;;;9.10;7.70;;;;;;;13.80;59.50;97235.03;5031169;28;20298;-70
2023/05/01 04:57:33;;;;;;;9.13;8.00;;;;;;;13.84;59.41;97231.06;5027146;28;20251;-72
2023/05/01 04:59:59;;;;;;;15.13;8.17;;;;;;;13.80;59.43;97230.56;5027557;28;20462;-71
2023/05/01 05:02:24;;;;;;;9.20;8.30;;;;;;;13.79;59.16;97230.75;5029003;28;20208;-70
2023/05/01 05:04:52;;;;;;;10.17;7.80;;;;;;;13.81;59.61;97232.19;5029853;28;20276;-70
2023/05/01 05:07:18;;;;;;;10.17;8.10;;;;;;;13.83;59.50;97234.69;5026822;28;20235;-70
2023/05/01 05:09:43;;;;;;;9.30;7.67;;;;;;;13.83;59.76;97234.69;4979047;28;20430;-72
2023/05/01 05:12:09;;;;;;;9.33;7.97;;;;;;;13.78;59.77;97231.72;5036049;28;20283;-70
2023/05/01 05:14:35;;;;;;;10.00;8.20;;;;;;;13.81;60.00;97232.19;5033414;28;20196;-71
2023/05/01 05:17:00;;;;;;;8.50;7.60;;;;;;;13.87;59.84;97240.41;5035669;28;20230;-71
2023/05/01 05:19:26;;;;;;;9.33;8.27;;;;;;;13.80;60.04;97233.19;5026913;28;20526;-70
2023/05/01 05:21:51;;;;;;;10.40;8.40;;;;;;;13.80;60.21;97235.03;5028287;28;20215;-70
2023/05/01 05:24:16;;;;;;;10.13;8.00;;;;;;;13.82;60.45;97235.66;5030252;28;20676;-70
2023/05/01 05:26:42;;;;;;;12.00;8.20;;;;;;;13.82;60.28;97233.84;5027813;28;20677;-70
2023/05/01 05:29:07;;;;;;;9.43;8.43;;;;;;;13.84;60.23;97236.31;5027550;28;20653;-70
2023/05/01 05:31:33;;;;;;;11.17;9.17;;;;;;;13.87;60.24;97235.16;5034766;28;20226;-69
2023/05/01 05:33:58;;;;;;;9.10;8.03;;;;;;;13.90;60.55;97237.44;5027487;28;20219;-70
2023/05/01 05:36:24;;;;;;;14.43;8.90;;;;;;;13.93;60.30;97240.56;5027115;28;20311;-69
2023/05/01 05:38:49;;;;;;;9.80;8.73;;;;;;;13.92;60.79;97243.38;5028443;28;20860;-71
2023/05/01 05:41:15;;;;;;;11.43;8.30;;;;;;;13.93;60.84;97243.19;5035123;28;20260;-71
2023/05/01 05:43:41;;;;;;;10.30;9.20;;;;;;;13.98;61.12;97243.50;5020260;28;20194;-70
2023/05/01 05:46:06;;;;;;;12.03;9.10;;;;;;;14.01;61.15;97237.06;5035395;28;20426;-70
2023/05/01 05:48:32;;;;;;;11.43;9.20;;;;;;;14.01;61.49;97246.75;5025448;28;20326;-69
2023/05/01 05:50:57;;;;;;;12.10;8.80;;;;;;;13.95;61.63;97241.22;5033179;28;20659;-71
2023/05/01 05:53:22;;;;;;;11.07;9.17;;;;;;;14.02;61.66;97237.88;5027491;28;20343;-71
2023/05/01 05:55:48;;;;;;;12.00;9.03;;;;;;;14.03;61.83;97239.50;5035181;28;20847;-71
2023/05/01 05:58:18;;;;;;;11.73;8.67;;;;;;;14.03;61.85;97239.50;5027430;28;20342;-72
2023/05/01 06:00:48;;;;;;;12.00;9.33;;;;;;;13.95;62.09;97238.56;5027932;28;20527;-71
2023/05/01 06:03:14;;;;;;;10.07;9.10;;;;;;;14.03;62.09;97234.25;5027671;28;20434;-71
2023/05/01 06:05:39;;;;;;;8.83;7.93;;;;;;;14.06;61.90;97239.16;5027011;28;20419;-72
2023/05/01 06:08:05;;;;;;;10.00;8.97;;;;;;;13.97;62.23;97235.75;5026248;28;20711;-72
2023/05/01 06:10:30;;;;;;;12.17;10.23;;;;;;;14.03;62.50;97240.34;5027291;28;20191;-73
2023/05/01 06:12:56;;;;;;;14.00;10.57;;;;;;;14.09;62.36;97238.81;5027522;28;20191;-71
2023/05/01 06:15:23;;;;;;;15.77;11.70;;;;;;;14.17;62.35;97238.78;5026343;28;20207;-71
2023/05/01 06:17:49;;;;;;;16.07;10.73;;;;;;;14.09;62.29;97238.81;5026812;28;20211;-73
2023/05/01 06:20:15;;;;;;;33.80;25.63;;;;;;;13.98;62.17;97238.22;5027378;28;20426;-71
2023/05/01 06:22:40;;;;;;;26.80;23.07;;;;;;;13.95;62.66;97232.47;5026999;28;20283;-72
2023/05/01 06:25:06;;;;;;;21.20;18.90;;;;;;;14.09;62.36;97233.56;5027803;28;20195;-72
2023/05/01 06:27:32;;;;;;;19.47;17.37;;;;;;;14.20;62.44;97234.94;5026747;28;20215;-72
2023/05/01 06:29:57;;;;;;;17.20;13.73;;;;;;;14.30;62.53;97235.56;5027862;28;20804;-72
2023/05/01 06:32:22;;;;;;;14.70;13.03;;;;;;;14.28;62.64;97235.72;5034686;28;20190;-71
2023/05/01 06:34:48;;;;;;;11.87;10.67;;;;;;;14.29;62.24;97240.00;5034566;28;20242;-72
2023/05/01 06:37:13;;;;;;;12.93;11.63;;;;;;;14.32;61.86;97244.09;5027443;28;20203;-73
2023/05/01 06:39:39;;;;;;;11.70;10.50;;;;;;;14.42;61.30;97249.16;5029479;28;20245;-71
2023/05/01 06:42:05;;;;;;;14.80;9.70;;;;;;;14.45;59.68;97248.81;5032898;28;20208;-72
2023/05/01 06:44:31;;;;;;;9.73;8.73;;;;;;;14.44;58.77;97244.53;5029307;28;20268;-71
2023/05/01 06:46:57;;;;;;;11.80;9.00;;;;;;;14.45;58.04;97243.53;5026894;28;20944;-71
2023/05/01 06:49:22;;;;;;;18.23;10.33;;;;;;;14.47;57.96;97253.91;5033601;28;20759;-72
2023/05/01 06:51:48;;;;;;;12.20;8.80;;;;;;;14.52;57.57;97254.19;5027257;28;20330;-72
2023/05/01 06:54:13;;;;;;;9.60;8.07;;;;;;;14.40;54.91;97251.97;5027045;28;20706;-71
2023/05/01 06:56:39;;;;;;;8.23;7.40;;;;;;;14.47;54.85;97259.16;5026392;28;20235;-72
2023/05/01 06:59:04;;;;;;;9.60;7.07;;;;;;;14.53;53.99;97266.38;5033898;28;20199;-72
2023/05/01 07:01:30;;;;;;;8.50;7.43;;;;;;;14.48;53.49;97258.16;5026538;28;20225;-69
2023/05/01 07:03:55;;;;;;;10.63;7.93;;;;;;;14.57;53.43;97265.03;5031742;28;20683;-72
2023/05/01 07:06:21;;;;;;;10.33;7.77;;;;;;;14.64;53.68;97270.41;5041793;28;20569;-71
2023/05/01 07:08:46;;;;;;;8.50;7.60;;;;;;;14.72;53.81;97267.75;5030582;28;20294;-71
2023/05/01 07:11:12;;;;;;;12.30;11.00;;;;;;;14.85;54.43;97269.78;5030574;28;20652;-70
2023/05/01 07:13:37;;;;;;;10.20;9.20;;;;;;;14.93;54.77;97264.47;5028260;28;20245;-69
2023/05/01 07:16:03;;;;;;;12.97;8.40;;;;;;;15.04;55.20;97271.09;5025411;28;20842;-71
2023/05/01 07:18:29;;;;;;;8.60;7.70;;;;;;;15.17;55.09;97268.66;5031557;28;20728;-70
2023/05/01 07:20:54;;;;;;;16.03;12.60;;;;;;;15.20;53.67;97270.13;5030513;28;20739;-71
2023/05/01 07:23:21;;;;;;;14.73;12.07;;;;;;;15.21;53.22;97269.13;5030782;28;20188;-70
2023/05/01 07:25:47;;;;;;;12.97;10.30;;;;;;;15.30;53.94;97264.59;5035972;28;20219;-71
2023/05/01 07:28:12;;;;;;;29.60;20.43;;;;;;;15.35;54.07;97259.59;5034837;28;20996;-71
2023/05/01 07:30:39;;;;;;;15.23;11.83;;;;;;;15.40;53.90;97257.22;5037924;28;20278;-71
2023/05/01 07:33:04;;;;;;;8.93;7.67;;;;;;;15.38;53.15;97261.84;5030398;28;20184;-73
2023/05/01 07:35:30;;;;;;;9.53;7.80;;;;;;;15.38;53.05;97261.03;5030652;28;20523;-70
2023/05/01 07:37:56;;;;;;;10.33;7.53;;;;;;;15.44;52.70;97261.13;5036723;28;20211;-73
2023/05/01 07:40:21;;;;;;;11.53;7.90;;;;;;;15.50;52.82;97257.75;5030199;28;20465;-72
2023/05/01 07:42:46;;;;;;;8.73;7.43;;;;;;;15.54;52.35;97257.41;5037198;28;20180;-71
2023/05/01 07:45:12;;;;;;;7.20;6.60;;;;;;;15.54;51.73;97252.13;5034050;28;20180;-72
2023/05/01 07:47:37;;;;;;;8.50;7.70;;;;;;;15.55;51.79;97256.41;5034732;28;20294;-73
2023/05/01 07:50:03;;;;;;;11.20;8.20;;;;;;;15.52;52.10;97257.59;5030282;28;20233;-72
2023/05/01 07:52:29;;;;;;;10.53;8.30;;;;;;;15.58;52.22;97253.41;5030080;28;20785;-71
2023/05/01 07:54:54;;;;;;;9.67;7.80;;;;;;;15.59;52.22;97260.31;5030338;28;20214;-70
2023/05/01 07:57:22;;;;;;;7.77;6.97;;;;;;;15.64;52.36;97248.22;5038317;28;20208;-70
2023/05/01 07:59:47;;;;;;;7.87;6.80;;;;;;;15.72;52.50;97249.94;5029553;28;20683;-70
2023/05/01 08:02:16;;;;;;;7.63;6.90;;;;;;;15.78;52.29;97243.91;5030406;28;20415;-70
2023/05/01 08:04:41;;;;;;;8.87;6.80;;;;;;;15.79;52.09;97242.91;5029274;28;20203;-70
2023/05/01 08:07:07;;;;;;;20.23;8.40;;;;;;;15.72;51.98;97249.94;5029992;28;20446;-71
2023/05/01 08:09:32;;;;;;;27.53;17.30;;;;;;;15.75;52.43;97241.63;5028045;28;20293;-70
2023/05/01 08:11:57;;;;;;;8.60;7.17;;;;;;;15.77;52.13;97242.25;5029483;28;20270;-70
2023/05/01 08:14:23;;;;;;;17.53;9.40;;;;;;;15.85;52.36;97240.56;5029423;28;20286;-70
2023/05/01 08:16:53;;;;;;;8.00;6.83;;;;;;;15.89;52.08;97240.00;5027542;28;20211;-72
2023/05/01 08:19:19;;;;;;;7.57;6.83;;;;;;;15.97;51.96;97247.00;5033549;28;20603;-71
2023/05/01 08:21:44;;;;;;;8.70;7.73;;;;;;;16.05;51.69;97243.44;5029147;28;20426;-69
2023/05/01 08:24:10;;;;;;;8.00;7.13;;;;;;;16.15;51.90;97240.47;5030163;28;20636;-71
2023/05/01 08:26:35;;;;;;;8.97;7.00;;;;;;;16.26;51.69;97245.25;5037056;28;20598;-71
2023/05/01 08:29:01;;;;;;;7.90;6.60;;;;;;;16.41;51.96;97238.09;5029108;28;20191;-72
2023/05/01 08:31:27;;;;;;;8.30;6.80;;;;;;;16.57;51.85;97236.22;5029260;28;20642;-71
2023/05/01 08:33:52;;;;;;;8.50;6.60;;;;;;;16.70;51.48;97236.34;5029595;28;20342;-71
2023/05/01 08:36:18;;;;;;;8.40;6.77;;;;;;;16.78;51.08;97234.56;5028831;28;20250;-71
2023/05/01 08:38:44;;;;;;;10.30;6.57;;;;;;;16.90;51.19;97230.38;5030841;28;20265;-71
2023/05/01 08:41:15;;;;;;;7.30;6.67;;;;;;;17.01;50.89;97231.72;5031314;28;20184;-70
2023/05/01 08:43:40;;;;;;;9.00;6.90;;;;;;;17.16;50.88;97228.97;5029054;28;20283;-72
2023/05/01 08:46:07;;;;;;;7.50;6.67;;;;;;;17.29;50.85;97217.66;5031392;28;20430;-73
2023/05/01 08:48:34;;;;;;;7.33;6.63;;;;;;;17.41;50.24;97224.03;5022481;28;20219;-73
2023/05/01 08:51:01;;;;;;;7.03;6.43;;;;;;;17.54;49.70;97225.91;5028776;28;20435;-71
2023/05/01 08:53:27;;;;;;;7.53;5.80;;;;;;;17.64;48.41;97222.91;5035357;28;21039;-71
2023/05/01 08:55:55;;;;;;;10.30;6.40;;;;;;;17.70;48.04;97223.97;5028801;28;20465;-73
2023/05/01 08:58:23;;;;;;;6.97;5.17;;;;;;;17.87;48.21;97219.97;5028698;28;21573;-70
2023/05/01 09:00:48;;;;;;;6.03;5.43;;;;;;;18.04;47.84;97224.91;5039913;28;20421;-72
2023/05/01 09:03:14;;;;;;;6.60;6.00;;;;;;;18.12;46.40;97230.06;5034453;28;20426;-71
2023/05/01 09:05:39;;;;;;;6.70;5.97;;;;;;;18.23;46.38;97233.94;5028838;28;20694;-71
2023/05/01 09:08:05;;;;;;;6.00;5.33;;;;;;;18.34;46.29;97232.53;5040307;28;20250;-71
2023/05/01 09:10:32;;;;;;;6.43;5.87;;;;;;;18.42;46.20;97233.19;5038191;28;20546;-71
2023/05/01 09:13:00;;;;;;;6.13;5.53;;;;;;;18.51;46.13;97225.84;5030216;28;20684;-71
2023/05/01 09:15:26;;;;;;;6.13;5.47;;;;;;;18.53;45.62;97228.28;5028329;28;21125;-72
2023/05/01 09:17:53;;;;;;;7.53;5.50;;;;;;;18.57;45.46;97224.22;5027777;28;20823;-71
2023/05/01 09:20:19;;;;;;;6.27;5.20;;;;;;;18.51;44.83;97228.50;5027090;28;20426;-70
2023/05/01 09:22:44;;;;;;;6.03;5.10;;;;;;;18.51;44.74;97231.16;5029151;28;20929;-71
2023/05/01 09:25:10;;;;;;;7.53;6.20;;;;;;;18.57;46.08;97225.03;5029678;28;20513;-70
2023/05/01 09:27:36;;;;;;;6.20;5.70;;;;;;;18.69;46.18;97225.25;5027726;28;20207;-70
2023/05/01 09:30:02;;;;;;;6.33;5.73;;;;;;;18.76;45.89;97232.38;5029131;28;20195;-70
2023/05/01 09:32:28;;;;;;;6.30;5.50;;;;;;;18.88;45.68;97234.22;5028399;28;20434;-71
2023/05/01 09:34:55;;;;;;;7.03;6.30;;;;;;;19.05;45.77;97233.03;5028062;28;20212;-71
2023/05/01 09:37:26;;;;;;;6.07;5.50;;;;;;;19.24;45.78;97228.72;5028295;28;20256;-71
2023/05/01 09:40:08;;;;;;;6.37;5.80;;;;;;;19.65;44.17;97230.25;5027046;28;20437;-72
2023/05/01 09:42:40;;;;;;;7.83;4.97;;;;;;;20.00;44.53;97226.41;5029728;28;20477;-71
2023/05/01 09:45:15;;;;;;;5.43;4.93;;;;;;;20.23;43.60;97220.56;5032010;28;20434;-73
2023/05/01 09:47:41;;;;;;;6.80;5.00;;;;;;;20.44;43.10;97215.94;5022389;28;20497;-72
2023/05/01 09:50:07;;;;;;;5.67;5.10;;;;;;;20.30;40.68;97208.03;5032501;28;20437;-73
2023/05/01 09:52:33;;;;;;;5.80;5.30;;;;;;;20.39;40.71;97208.59;5027036;28;20438;-72
2023/05/01 09:55:11;;;;;;;5.27;4.77;;;;;;;20.37;39.45;97211.50;5032247;28;20702;-71
2023/05/01 09:57:37;;;;;;;5.67;5.10;;;;;;;20.42;39.40;97216.16;5036915;28;20328;-72
2023/05/01 10:00:07;;;;;;;26.53;8.83;;;;;;;20.45;39.55;97212.25;5035597;28;20430;-71
2023/05/01 10:02:32;;;;;;;8.63;4.90;;;;;;;20.51;39.87;97216.72;5027497;28;20513;-74
2023/05/01 10:04:58;;;;;;;4.53;4.13;;;;;;;20.55;39.02;97212.56;5027981;28;20525;-71
2023/05/01 10:07:24;;;;;;;6.90;5.10;;;;;;;20.58;38.80;97206.81;5031967;28;20226;-71
2023/05/01 10:09:50;;;;;;;6.97;4.60;;;;;;;20.57;38.82;97210.53;5019553;28;21480;-71
2023/05/01 10:12:24;;;;;;;5.90;4.50;;;;;;;20.62;38.89;97213.34;5030713;28;20908;-71
2023/05/01 10:14:54;;;;;;;7.07;4.50;;;;;;;20.66;39.14;97213.72;4993378;28;20609;-71
2023/05/01 10:17:19;;;;;;;5.17;4.13;;;;;;;20.70;38.62;97218.41;5030296;28;20488;-72
2023/05/01 10:19:46;;;;;;;4.80;4.20;;;;;;;20.71;38.91;97214.72;5035294;28;20872;-71
2023/05/01 10:22:11;;;;;;;8.70;5.80;;;;;;;20.76;39.27;97215.94;5027622;28;20188;-71
2023/05/01 10:24:38;;;;;;;7.23;6.40;;;;;;;20.70;41.08;97215.75;5029829;28;20425;-71
2023/05/01 10:27:05;;;;;;;7.70;6.90;;;;;;;20.63;40.75;97222.16;5034026;28;20208;-72
2023/05/01 10:29:33;;;;;;;7.30;6.60;;;;;;;20.50;41.48;97220.41;5025487;28;20434;-72
2023/05/01 10:31:59;;;;;;;8.77;6.97;;;;;;;20.53;41.80;97220.00;5020733;28;20449;-73
2023/05/01 10:34:26;;;;;;;8.60;6.77;;;;;;;20.62;42.43;97223.19;5028242;28;20430;-70
2023/05/01 10:36:56;;;;;;;6.70;6.10;;;;;;;20.56;41.29;97216.88;5027711;28;20811;-72
2023/05/01 10:39:35;;;;;;;7.73;6.40;;;;;;;20.66;41.89;97214.56;5027665;28;20501;-72
2023/05/01 10:42:04;;;;;;;7.00;5.80;;;;;;;20.82;42.24;97215.06;5037660;28;20437;-73
2023/05/01 10:44:30;;;;;;;9.43;6.73;;;;;;;20.93;41.54;97222.34;5040180;28;20437;-72
2023/05/01 10:46:56;;;;;;;12.77;6.73;;;;;;;21.07;41.46;97215.06;5035703;28;20494;-72
2023/05/01 10:49:21;;;;;;;7.63;6.83;;;;;;;21.20;41.10;97223.97;5046655;28;20946;-71
2023/05/01 10:51:59;;;;;;;7.40;6.60;;;;;;;21.18;40.80;97217.00;5034580;28;20187;-72
2023/05/01 10:54:26;;;;;;;6.67;6.07;;;;;;;21.17;40.88;97212.69;5044776;28;20213;-72
2023/05/01 10:56:53;;;;;;;8.47;6.20;;;;;;;20.94;40.54;97213.31;5033395;28;20466;-73
2023/05/01 10:59:19;;;;;;;7.63;6.60;;;;;;;20.77;40.48;97212.25;5038483;28;20434;-72
2023/05/01 11:01:50;;;;;;;7.67;6.87;;;;;;;20.64;41.24;97213.13;5041726;28;20429;-73
2023/05/01 11:04:18;;;;;;;9.40;7.50;;;;;;;20.64;41.93;97216.63;5033013;28;20433;-71
2023/05/01 11:07:13;;;;;;;10.07;6.20;;;;;;;20.53;41.92;97209.34;5040566;28;20493;-72
2023/05/01 11:09:54;;;;;;;7.60;6.67;;;;;;;20.36;42.07;97212.50;5032626;28;20434;-72
2023/05/01 11:12:44;;;;;;;8.13;7.33;;;;;;;20.22;42.33;97209.13;5034437;28;20470;-73
2023/05/01 11:15:10;;;;;;;7.93;6.27;;;;;;;20.15;41.99;97208.34;5035754;28;20526;-71
2023/05/01 11:17:38;;;;;;;7.30;6.60;;;;;;;20.14;42.57;97211.22;5030333;28;20532;-71
2023/05/01 11:20:04;;;;;;;11.57;6.67;;;;;;;20.17;42.72;97211.59;5030637;28;20238;-71
2023/05/01 11:22:31;;;;;;;7.50;6.87;;;;;;;20.07;42.16;97204.09;5038790;28;20422;-72
2023/05/01 11:24:57;;;;;;;8.80;7.43;;;;;;;19.92;42.42;97211.53;5032254;28;20419;-71
2023/05/01 11:27:23;;;;;;;8.47;7.67;;;;;;;19.79;42.68;97210.53;5038749;28;20599;-71
2023/05/01 11:29:49;;;;;;;7.87;7.07;;;;;;;19.74;42.96;97210.38;5040187;28;20183;-72